Time;durP1;ratioP1;P1;durP2;ratioP2;P2;SDS_P1;SDS_P2;PMS_P1;PMS_P2;Temp;Humidity;BMP_temperature;BMP_pressure;BME280_temperature;BME280_humidity;BME280_pressure;Samples;Min_cycle;Max_cycle;Signal;HPM_P1;HPM_P2
2023/03/06 00:00:53;;;;;;;;;64.75;50.00;;;;;6.87;66.50;99990.31;5035574;28;45582;-73
2023/03/06 00:03:19;;;;;;;;;62.00;49.50;;;;;6.92;66.30;99987.88;5034807;28;46185;-75
2023/03/06 00:05:45;;;;;;;;;59.50;47.75;;;;;6.86;66.53;99964.28;5036377;28;45517;-75
2023/03/06 00:08:10;;;;;;;;;64.75;49.50;;;;;6.73;67.56;99960.38;5034993;28;45410;-76
2023/03/06 00:10:37;;;;;;;;;71.50;53.00;;;;;6.76;67.32;99976.03;5030966;28;45426;-75
2023/03/06 00:13:06;;;;;;;;;59.75;49.25;;;;;6.74;67.28;99978.63;5040065;28;45608;-76
2023/03/06 00:15:31;;;;;;;;;66.25;52.25;;;;;6.75;66.94;99969.09;5038961;28;45507;-74
2023/03/06 00:17:57;;;;;;;;;65.00;52.75;;;;;6.66;66.79;99948.00;5039253;28;45497;-74
2023/03/06 00:20:24;;;;;;;;;70.75;52.25;;;;;6.60;67.08;99948.66;5047969;28;45729;-76
2023/03/06 00:22:50;;;;;;;;;65.50;50.00;;;;;6.66;66.90;99946.28;5031288;28;46487;-75
2023/03/06 00:25:19;;;;;;;;;65.50;52.25;;;;;6.69;66.87;99949.00;5034282;28;45440;-74
2023/03/06 00:27:44;;;;;;;;;68.50;51.75;;;;;6.73;66.45;99950.00;5032748;28;45439;-75
2023/03/06 00:30:13;;;;;;;;;67.25;52.75;;;;;6.58;66.25;99945.13;5033105;28;45475;-75
2023/03/06 00:32:38;;;;;;;;;66.75;51.00;;;;;6.45;67.27;99937.75;5035284;28;46320;-74
2023/03/06 00:35:04;;;;;;;;;66.00;52.25;;;;;6.63;66.84;99958.28;5028739;28;45544;-75
2023/03/06 00:37:30;;;;;;;;;65.75;51.00;;;;;6.74;66.81;99962.13;5037963;28;45228;-75
2023/03/06 00:39:55;;;;;;;;;65.25;50.00;;;;;6.57;67.21;99928.66;5032108;28;45469;-74
2023/03/06 00:42:21;;;;;;;;;68.00;53.25;;;;;6.79;67.19;99964.91;5036113;28;46127;-74
2023/03/06 00:44:47;;;;;;;;;65.75;52.75;;;;;6.66;67.05;99935.03;5033672;28;45537;-74
2023/03/06 00:47:15;;;;;;;;;60.50;43.25;;;;;6.83;66.88;99949.50;5035879;28;45311;-76
2023/03/06 00:49:44;;;;;;;;;61.50;51.25;;;;;6.87;66.51;99946.16;5034019;28;45428;-76
2023/03/06 00:52:10;;;;;;;;;77.75;58.50;;;;;7.03;66.32;99965.75;5036937;28;46289;-76
2023/03/06 00:54:35;;;;;;;;;69.00;50.50;;;;;6.94;66.13;99949.84;5046327;28;45422;-76
2023/03/06 00:57:01;;;;;;;;;60.25;49.25;;;;;6.95;66.21;99942.13;5038293;28;45477;-74
2023/03/06 00:59:26;;;;;;;;;63.50;51.00;;;;;7.04;66.47;99956.25;5035516;28;45292;-75
2023/03/06 01:01:53;;;;;;;;;64.75;48.75;;;;;6.96;66.84;99938.72;5037723;28;45487;-74
2023/03/06 01:04:19;;;;;;;;;62.25;49.00;;;;;7.01;66.97;99953.56;5028892;28;45351;-75
2023/03/06 01:06:44;;;;;;;;;68.75;52.25;;;;;7.00;66.88;99952.66;5033724;28;45446;-75
2023/03/06 01:09:10;;;;;;;;;57.00;47.75;;;;;7.08;67.03;99966.81;5033371;28;45535;-73
2023/03/06 01:11:36;;;;;;;;;62.75;49.25;;;;;6.93;67.27;99948.97;5032561;28;46515;-74
2023/03/06 01:14:01;;;;;;;;;63.75;49.00;;;;;7.06;67.32;99972.75;5030034;28;45428;-76
2023/03/06 01:16:27;;;;;;;;;63.00;51.00;;;;;7.07;68.05;99969.34;5034164;28;45350;-75
2023/03/06 01:18:53;;;;;;;;;65.25;52.50;;;;;7.00;67.54;99959.56;5029874;28;45629;-75
2023/03/06 01:21:19;;;;;;;;;66.25;49.50;;;;;7.10;66.88;99977.25;5035898;28;45470;-75
2023/03/06 01:23:44;;;;;;;;;62.50;51.50;;;;;6.88;67.46;99940.13;5027445;28;45444;-75
2023/03/06 01:26:10;;;;;;;;;65.00;49.75;;;;;7.00;67.74;99956.97;5034681;28;45646;-76
2023/03/06 01:28:37;;;;;;;;;64.50;49.00;;;;;7.02;68.03;99966.56;5030562;28;45320;-73
2023/03/06 01:31:04;;;;;;;;;68.50;49.25;;;;;7.01;67.39;99953.56;5036214;28;45533;-76
2023/03/06 01:33:30;;;;;;;;;61.50;50.00;;;;;6.99;67.39;99958.69;5028457;28;45438;-74
2023/03/06 01:35:56;;;;;;;;;60.50;47.25;;;;;7.06;66.88;99958.09;5031447;28;45478;-74
2023/03/06 01:38:21;;;;;;;;;66.75;52.25;;;;;7.05;67.12;99942.44;5051783;28;45545;-74
2023/03/06 01:40:47;;;;;;;;;68.50;51.25;;;;;7.02;67.05;99926.75;5033049;28;46479;-74
2023/03/06 01:43:25;;;;;;;;;64.25;51.50;;;;;7.20;67.12;99958.53;5035992;28;45586;-74
2023/03/06 01:45:50;;;;;;;;;59.25;46.50;;;;;7.22;66.61;99961.19;5027038;28;45439;-74
2023/03/06 01:48:20;;;;;;;;;59.75;48.50;;;;;7.10;66.58;99931.41;5025679;28;45695;-75
2023/03/06 01:50:47;;;;;;;;;68.25;52.25;;;;;7.19;67.31;99941.19;5029986;28;45624;-75
2023/03/06 01:53:14;;;;;;;;;66.00;53.75;;;;;7.19;67.15;99941.19;5048680;28;45561;-74
2023/03/06 01:55:39;;;;;;;;;64.00;50.75;;;;;7.32;67.04;99953.78;5029682;28;45302;-74
2023/03/06 01:58:14;;;;;;;;;60.00;48.50;;;;;7.22;66.78;99946.50;5032941;28;45482;-74
2023/03/06 02:00:40;;;;;;;;;61.25;49.25;;;;;7.20;67.15;99953.34;5037265;28;46711;-74
2023/03/06 02:03:11;;;;;;;;;64.75;48.75;;;;;7.17;67.37;99943.72;5031984;28;45618;-74
2023/03/06 02:05:40;;;;;;;;;63.25;46.50;;;;;7.24;66.75;99943.94;5029633;28;45529;-74
2023/03/06 02:08:08;;;;;;;;;65.50;50.00;;;;;7.15;66.58;99921.16;5030437;28;45506;-73
2023/03/06 02:10:34;;;;;;;;;58.50;48.00;;;;;7.23;66.60;99927.47;5032064;28;45477;-73
2023/03/06 02:13:00;;;;;;;;;65.00;50.75;;;;;7.27;67.27;99929.34;5031446;28;45361;-73
2023/03/06 02:15:28;;;;;;;;;58.00;47.00;;;;;7.41;67.06;99940.19;5027520;28;45489;-74
2023/03/06 02:17:54;;;;;;;;;60.00;48.00;;;;;7.34;67.31;99923.53;5034444;28;45529;-74
2023/03/06 02:20:38;;;;;;;;;59.25;47.75;;;;;7.34;67.04;99917.44;5025422;28;46487;-74
2023/03/06 02:23:45;;;;;;;;;61.75;48.25;;;;;7.39;66.87;99928.88;5029299;28;45506;-74
2023/03/06 02:26:12;;;;;;;;;65.00;49.25;;;;;7.39;67.11;99921.06;5026698;28;45613;-74
2023/03/06 02:28:38;;;;;;;;;61.75;48.75;;;;;7.43;67.71;99935.06;5022693;28;45494;-74
2023/03/06 02:31:05;;;;;;;;;58.00;47.25;;;;;7.39;66.94;99928.00;5035245;28;46713;-74
2023/03/06 02:33:31;;;;;;;;;59.00;47.00;;;;;7.46;67.03;99935.13;5032604;28;45390;-74
2023/03/06 02:36:01;;;;;;;;;66.75;48.50;;;;;7.48;67.02;99930.88;5028237;28;45569;-74
2023/03/06 02:38:43;;;;;;;;;58.75;45.75;;;;;7.52;66.83;99931.03;5031369;28;45178;-75
2023/03/06 02:41:08;;;;;;;;;68.00;48.00;;;;;7.36;67.61;99903.69;5027792;28;45510;-74
2023/03/06 02:43:37;;;;;;;;;52.25;42.50;;;;;7.43;67.06;99915.13;5030417;28;45744;-74
2023/03/06 02:46:03;;;;;;;;;59.25;46.00;;;;;7.46;67.30;99917.84;5031931;28;45406;-74
2023/03/06 02:48:28;;;;;;;;;65.25;49.50;;;;;7.43;67.20;99914.25;5030483;28;45430;-74
2023/03/06 02:50:54;;;;;;;;;57.50;45.75;;;;;7.33;66.88;99913.94;5027698;28;46243;-74
2023/03/06 02:53:20;;;;;;;;;62.00;48.75;;;;;7.27;67.32;99890.38;5050984;28;45513;-74
2023/03/06 02:55:46;;;;;;;;;59.50;47.00;;;;;7.43;67.30;99917.75;5030445;28;45532;-74
2023/03/06 02:58:12;;;;;;;;;59.50;49.00;;;;;7.24;68.15;99902.38;5036067;28;45422;-75
2023/03/06 03:00:38;;;;;;;;;64.00;48.50;;;;;7.33;68.26;99931.28;5023535;28;47316;-74
2023/03/06 03:03:05;;;;;;;;;64.75;47.00;;;;;7.33;67.76;99929.53;5027853;28;45479;-75
2023/03/06 03:05:31;;;;;;;;;64.25;47.75;;;;;7.35;67.43;99921.81;5025304;28;45281;-74
2023/03/06 03:07:57;;;;;;;;;55.25;42.75;;;;;7.33;67.42;99910.47;5030218;28;45587;-75
2023/03/06 03:10:23;;;;;;;;;53.75;42.75;;;;;7.33;67.86;99907.88;5030913;28;46526;-75
2023/03/06 03:12:49;;;;;;;;;61.75;47.50;;;;;7.32;67.42;99893.09;5026335;28;45638;-76
2023/03/06 03:15:15;;;;;;;;;58.00;47.25;;;;;7.42;67.06;99904.69;5033364;28;45430;-75
2023/03/06 03:17:41;;;;;;;;;64.00;45.25;;;;;7.51;67.37;99910.19;5048676;28;45482;-74
2023/03/06 03:20:11;;;;;;;;;58.50;46.00;;;;;7.56;67.15;99927.72;5031876;28;46406;-75
2023/03/06 03:22:37;;;;;;;;;55.00;44.25;;;;;7.59;66.51;99921.72;5025445;28;45359;-75
2023/03/06 03:25:03;;;;;;;;;57.75;45.25;;;;;7.48;66.92;99900.59;5029921;28;45387;-75
2023/03/06 03:27:29;;;;;;;;;58.25;44.25;;;;;7.55;66.63;99909.44;5028288;28;45359;-75
2023/03/06 03:29:58;;;;;;;;;57.50;44.00;;;;;7.66;66.87;99917.56;5035944;28;45436;-76
2023/03/06 03:32:24;;;;;;;;;59.00;46.75;;;;;7.71;66.93;99921.22;5029915;28;45489;-75
2023/03/06 03:34:49;;;;;;;;;48.75;40.50;;;;;7.63;66.83;99907.09;5029628;28;45434;-75
2023/03/06 03:37:15;;;;;;;;;54.50;44.25;;;;;7.58;66.90;99891.38;5044574;28;45712;-75
2023/03/06 03:39:40;;;;;;;;;63.25;47.00;;;;;7.69;66.96;99904.69;5048305;28;45375;-75
2023/03/06 03:42:06;;;;;;;;;61.00;46.00;;;;;7.60;67.38;99894.91;5031717;28;45581;-76
2023/03/06 03:44:32;;;;;;;;;62.00;48.00;;;;;7.65;67.31;99895.03;5016851;28;45375;-75
2023/03/06 03:46:57;;;;;;;;;62.75;48.00;;;;;7.71;67.87;99910.81;5016797;28;45260;-75
2023/03/06 03:49:23;;;;;;;;;55.75;43.50;;;;;7.33;67.43;99848.13;5015425;28;46382;-75
2023/03/06 03:51:49;;;;;;;;;53.25;43.75;;;;;7.69;67.23;99908.16;5016554;28;45477;-75
2023/03/06 03:54:14;;;;;;;;;55.75;46.00;;;;;7.67;68.05;99894.25;5016138;28;45334;-75
2023/03/06 03:56:40;;;;;;;;;54.25;45.00;;;;;7.61;68.26;99904.44;5016645;28;45370;-75
2023/03/06 03:59:06;;;;;;;;;54.25;43.00;;;;;7.64;67.87;99901.97;5033720;28;46678;-75
2023/03/06 04:01:32;;;;;;;;;58.50;44.25;;;;;7.70;68.08;99904.75;5019679;28;45261;-76
2023/03/06 04:03:57;;;;;;;;;53.75;42.75;;;;;7.67;68.13;99893.38;5019910;28;45426;-75
2023/03/06 04:06:23;;;;;;;;;57.25;44.50;;;;;7.58;68.47;99870.56;5038593;28;45462;-76
2023/03/06 04:08:48;;;;;;;;;57.50;44.00;;;;;7.67;67.72;99890.75;5039738;28;46426;-76
2023/03/06 04:11:14;;;;;;;;;56.00;44.75;;;;;7.73;68.55;99904.81;5039330;28;45264;-76
2023/03/06 04:13:40;;;;;;;;;57.75;44.00;;;;;7.68;68.28;99890.81;5038639;28;45182;-75
2023/03/06 04:16:06;;;;;;;;;58.25;44.25;;;;;7.62;67.91;99869.84;5055087;28;45676;-75
2023/03/06 04:18:31;;;;;;;;;53.00;39.50;;;;;7.79;67.72;99891.13;5039311;28;46542;-75
2023/03/06 04:20:57;;;;;;;;;53.25;45.25;;;;;7.79;67.66;99892.88;5030641;28;45550;-75
2023/03/06 04:23:23;;;;;;;;;57.25;45.00;;;;;7.82;68.03;99899.03;5019403;28;45357;-75
2023/03/06 04:25:49;;;;;;;;;52.50;43.50;;;;;7.84;68.75;99902.56;5034892;28;45505;-75
2023/03/06 04:28:14;;;;;;;;;59.50;41.75;;;;;7.79;67.99;99898.94;5034571;28;47721;-75
2023/03/06 04:30:40;;;;;;;;;52.25;42.00;;;;;7.74;67.63;99880.59;5019105;28;45372;-75
2023/03/06 04:33:05;;;;;;;;;52.25;42.25;;;;;7.92;67.57;99902.81;5019192;28;45477;-75
2023/03/06 04:35:31;;;;;;;;;51.00;41.00;;;;;7.83;67.42;99874.78;5019118;28;45485;-76
2023/03/06 04:37:57;;;;;;;;;57.75;47.00;;;;;7.92;67.39;99901.09;5033668;28;45597;-76
2023/03/06 04:40:28;;;;;;;;;58.50;43.75;;;;;7.80;67.70;99892.00;5018424;28;45415;-76
2023/03/06 04:42:55;;;;;;;;;50.75;42.25;;;;;7.84;68.31;99893.88;5023993;28;45513;-76
2023/03/06 04:45:22;;;;;;;;;56.00;42.50;;;;;7.84;68.00;99902.56;5048336;28;46443;-76
2023/03/06 04:47:48;;;;;;;;;52.25;42.25;;;;;7.68;68.28;99876.91;5034916;28;46604;-76
2023/03/06 04:50:14;;;;;;;;;53.75;41.75;;;;;7.75;68.51;99897.09;5037770;28;45436;-75
2023/03/06 04:52:39;;;;;;;;;48.50;40.00;;;;;7.66;68.53;99874.28;5037635;28;45362;-75
2023/03/06 04:55:07;;;;;;;;;54.50;42.50;;;;;7.74;69.11;99903.13;5023463;28;45473;-75
2023/03/06 04:57:37;;;;;;;;;50.25;40.00;;;;;7.72;68.56;99897.88;5034736;28;45472;-75
2023/03/06 05:00:09;;;;;;;;;50.75;40.00;;;;;7.71;68.81;99914.28;5038718;28;46285;-75
2023/03/06 05:02:35;;;;;;;;;58.25;44.25;;;;;7.60;69.19;99896.59;5038509;28;45467;-75
2023/03/06 05:05:01;;;;;;;;;58.00;46.25;;;;;7.57;68.48;99890.47;5038763;28;45497;-75
2023/03/06 05:07:27;;;;;;;;;60.50;45.00;;;;;7.62;68.49;99897.53;5039120;28;46470;-75
2023/03/06 05:09:52;;;;;;;;;56.00;42.50;;;;;7.64;69.35;99920.16;5036925;28;45538;-75
2023/03/06 05:12:18;;;;;;;;;59.50;46.00;;;;;7.54;69.04;99894.69;5038593;28;45447;-75
2023/03/06 05:14:43;;;;;;;;;46.50;40.00;;;;;7.64;68.74;99906.25;5026823;28;45522;-75
2023/03/06 05:17:10;;;;;;;;;57.75;44.00;;;;;7.47;69.03;99878.03;5017755;28;46480;-75
2023/03/06 05:19:35;;;;;;;;;58.50;46.00;;;;;7.59;68.66;99898.31;5032279;28;45535;-75
2023/03/06 05:22:01;;;;;;;;;55.25;44.50;;;;;7.55;68.87;99891.25;5033480;28;45416;-75
2023/03/06 05:24:26;;;;;;;;;42.75;39.00;;;;;7.09;68.54;99798.88;5028731;28;45549;-75
2023/03/06 05:26:52;;;;;;;;;48.50;41.75;;;;;7.73;68.80;99907.44;5037193;28;46092;-75
2023/03/06 05:29:17;;;;;;;;;66.50;52.50;;;;;7.60;68.49;99881.00;5036632;28;45354;-75
2023/03/06 05:31:43;;;;;;;;;55.50;44.00;;;;;7.68;68.81;99890.81;5037963;28;46129;-75
2023/03/06 05:34:12;;;;;;;;;55.75;42.25;;;;;7.72;68.86;99905.69;5038019;28;45328;-76
2023/03/06 05:36:38;;;;;;;;;54.25;44.50;;;;;7.73;68.19;99899.63;5037993;28;45430;-75
2023/03/06 05:39:03;;;;;;;;;60.00;47.25;;;;;7.80;68.33;99905.00;5037763;28;45369;-75
2023/03/06 05:41:29;;;;;;;;;59.50;45.50;;;;;7.77;68.11;99904.09;5053620;28;45433;-76
2023/03/06 05:43:55;;;;;;;;;48.50;39.25;;;;;7.81;68.85;99912.88;5035344;28;45343;-74
2023/03/06 05:46:21;;;;;;;;;52.50;42.00;;;;;7.72;68.97;99902.19;5015707;28;45349;-76
2023/03/06 05:48:46;;;;;;;;;50.00;42.25;;;;;7.77;68.56;99906.69;5017337;28;45775;-76
2023/03/06 05:51:12;;;;;;;;;56.00;43.00;;;;;7.64;68.70;99881.16;5018003;28;45406;-75
2023/03/06 05:53:37;;;;;;;;;54.75;43.00;;;;;7.73;69.56;99901.34;5018419;28;45263;-75
2023/03/06 05:56:07;;;;;;;;;48.75;40.75;;;;;7.76;69.59;99904.94;5016350;28;47782;-76
2023/03/06 05:58:33;;;;;;;;;61.50;48.50;;;;;7.81;68.65;99904.19;5018006;28;45290;-76
2023/03/06 06:01:00;;;;;;;;;55.25;42.50;;;;;7.91;68.49;99919.22;5023811;28;45599;-75
2023/03/06 06:03:26;;;;;;;;;57.00;44.00;;;;;7.92;68.75;99921.00;5037442;28;45451;-75
2023/03/06 06:05:51;;;;;;;;;55.50;43.50;;;;;7.82;69.11;99914.66;5036897;28;45569;-75
2023/03/06 06:08:17;;;;;;;;;60.50;44.75;;;;;7.86;69.31;99926.00;5037153;28;45451;-75
2023/03/06 06:10:43;;;;;;;;;60.00;44.00;;;;;7.79;69.52;99908.47;5037611;28;45504;-76
2023/03/06 06:13:09;;;;;;;;;48.75;40.00;;;;;7.91;68.94;99932.25;5053209;28;45588;-75
2023/03/06 06:15:36;;;;;;;;;57.75;45.25;;;;;7.89;69.28;99920.91;5052354;28;46870;-74
2023/03/06 06:18:02;;;;;;;;;60.75;46.50;;;;;7.73;69.87;99915.22;5036210;28;45551;-74
2023/03/06 06:20:28;;;;;;;;;56.50;44.25;;;;;7.66;69.71;99896.78;5052122;28;45680;-74
2023/03/06 06:22:53;;;;;;;;;59.50;45.50;;;;;7.69;69.58;99897.75;5053124;28;45498;-74
2023/03/06 06:25:19;;;;;;;;;62.75;48.75;;;;;7.84;69.35;99912.06;5037208;28;45545;-74
2023/03/06 06:27:44;;;;;;;;;52.50;44.00;;;;;7.77;69.33;99906.69;5036828;28;45511;-74
2023/03/06 06:30:11;;;;;;;;;52.50;42.00;;;;;7.88;69.23;99919.16;5037014;28;45466;-73
2023/03/06 06:32:37;;;;;;;;;49.25;41.50;;;;;7.83;69.31;99918.13;5036165;28;45324;-74
2023/03/06 06:35:03;;;;;;;;;61.75;45.50;;;;;7.80;69.41;99907.63;5037055;28;45479;-74
2023/03/06 06:37:30;;;;;;;;;57.75;45.00;;;;;7.91;69.46;99925.31;5037459;28;45515;-73
2023/03/06 06:39:55;;;;;;;;;56.50;46.25;;;;;7.76;69.56;99910.13;5037256;28;45334;-74
2023/03/06 06:42:21;;;;;;;;;57.50;46.50;;;;;7.79;69.93;99918.88;5037590;28;45560;-75
2023/03/06 06:44:47;;;;;;;;;58.00;44.50;;;;;7.79;70.25;99921.47;5041936;28;45482;-74
2023/03/06 06:47:12;;;;;;;;;53.50;43.25;;;;;7.74;69.65;99917.00;5032088;28;45509;-74
2023/03/06 06:49:38;;;;;;;;;53.75;42.75;;;;;7.70;69.36;99909.03;5016868;28;45421;-73
2023/03/06 06:52:04;;;;;;;;;52.25;41.00;;;;;7.85;69.36;99934.66;5017026;28;45461;-74
2023/03/06 06:54:31;;;;;;;;;48.00;42.00;;;;;7.85;69.28;99935.53;5017401;28;46435;-74
2023/03/06 06:56:57;;;;;;;;;46.25;40.00;;;;;7.76;69.14;99915.34;5016908;28;45658;-74
2023/03/06 06:59:23;;;;;;;;;54.75;42.75;;;;;7.80;68.87;99918.91;5016632;28;45460;-74
2023/03/06 07:01:49;;;;;;;;;45.75;40.00;;;;;7.77;68.86;99921.41;5017154;28;45359;-74
2023/03/06 07:04:16;;;;;;;;;35.00;34.75;;;;;7.95;68.96;99945.38;5016791;28;45669;-74
2023/03/06 07:06:42;;;;;;;;;52.50;42.00;;;;;7.90;68.90;99943.50;5032212;28;45513;-75
2023/03/06 07:09:08;;;;;;;;;54.00;44.75;;;;;8.03;68.58;99953.41;5017110;28;45336;-75
2023/03/06 07:11:33;;;;;;;;;51.00;42.00;;;;;7.84;68.79;99912.06;5016115;28;45329;-75
2023/03/06 07:14:00;;;;;;;;;57.75;45.50;;;;;8.00;68.83;99937.72;5019182;28;46173;-76
2023/03/06 07:16:26;;;;;;;;;55.00;44.50;;;;;8.11;68.60;99951.06;5034593;28;45470;-75
2023/03/06 07:18:52;;;;;;;;;48.75;40.50;;;;;8.16;68.79;99950.34;5036454;28;45441;-76
2023/03/06 07:21:17;;;;;;;;;69.25;54.00;;;;;8.10;69.00;99942.38;5036935;28;45470;-76
2023/03/06 07:23:43;;;;;;;;;62.00;50.50;;;;;7.99;69.06;99920.34;5036403;28;45785;-75
2023/03/06 07:26:09;;;;;;;;;65.50;53.00;;;;;8.10;68.94;99944.97;5036409;28;45370;-76
2023/03/06 07:28:35;;;;;;;;;70.50;55.00;;;;;8.20;68.98;99961.75;5036710;28;45370;-76
2023/03/06 07:31:00;;;;;;;;;68.25;54.25;;;;;8.16;69.32;99942.56;5037195;28;45308;-77
2023/03/06 07:33:26;;;;;;;;;75.50;57.50;;;;;8.19;68.64;99940.88;5039013;28;46504;-74
2023/03/06 07:35:51;;;;;;;;;75.00;57.25;;;;;8.24;68.56;99952.31;5038681;28;45470;-74
2023/03/06 07:38:17;;;;;;;;;63.00;49.25;;;;;8.29;68.55;99963.72;5038000;28;45401;-74
2023/03/06 07:40:43;;;;;;;;;54.25;42.75;;;;;8.31;68.96;99967.25;5055301;28;45409;-75
2023/03/06 07:43:09;;;;;;;;;51.25;43.25;;;;;8.28;69.36;99961.97;5039838;28;46123;-75
2023/03/06 07:45:35;;;;;;;;;57.75;42.25;;;;;8.23;69.05;99954.00;5038817;28;45359;-74
2023/03/06 07:48:00;;;;;;;;;51.00;41.25;;;;;8.41;69.09;99974.53;5038090;28;45520;-75
2023/03/06 07:50:26;;;;;;;;;54.25;40.00;;;;;8.43;69.15;99967.66;5040006;28;45463;-74
2023/03/06 07:52:52;;;;;;;;;61.50;46.75;;;;;8.48;69.02;99973.88;5039616;28;46325;-74
2023/03/06 07:55:18;;;;;;;;;59.00;46.00;;;;;8.45;68.80;99962.50;5038415;28;45283;-73
2023/03/06 07:57:44;;;;;;;;;52.25;42.00;;;;;8.47;68.55;99956.47;5039750;28;45492;-73
2023/03/06 08:00:14;;;;;;;;;60.50;45.00;;;;;8.42;69.01;99952.88;5039756;28;45509;-74
2023/03/06 08:02:41;;;;;;;;;53.50;40.25;;;;;8.55;68.13;99964.53;5039352;28;45280;-74
2023/03/06 08:05:09;;;;;;;;;51.00;42.25;;;;;8.71;68.67;99978.84;5055271;28;45637;-74
2023/03/06 08:07:34;;;;;;;;;57.50;46.25;;;;;8.66;68.71;99962.25;5038655;28;45343;-73
2023/03/06 08:10:00;;;;;;;;;54.75;45.00;;;;;8.72;68.41;99981.50;5039571;28;45553;-73
2023/03/06 08:12:25;;;;;;;;;57.00;46.00;;;;;8.74;67.95;99973.75;5039344;28;45508;-73
2023/03/06 08:14:51;;;;;;;;;63.25;46.25;;;;;8.74;67.87;99958.13;5038531;28;45395;-73
2023/03/06 08:17:16;;;;;;;;;63.75;48.75;;;;;8.75;67.94;99966.00;5039377;28;45563;-73
2023/03/06 08:19:42;;;;;;;;;70.50;55.25;;;;;8.83;68.29;99986.13;5039434;28;45386;-72
2023/03/06 08:22:09;;;;;;;;;66.00;50.25;;;;;8.75;68.47;99967.69;5054689;28;45965;-74
2023/03/06 08:24:35;;;;;;;;;59.75;48.25;;;;;8.90;68.30;99994.16;5039419;28;45482;-77
2023/03/06 08:27:01;;;;;;;;;53.50;44.00;;;;;8.82;68.16;99960.94;5054712;28;45463;-75
2023/03/06 08:29:26;;;;;;;;;57.25;45.50;;;;;8.96;68.05;99970.00;5037736;28;45198;-76
2023/03/06 08:31:52;;;;;;;;;61.00;48.25;;;;;8.80;68.00;99920.97;5038797;28;45366;-77
2023/03/06 08:34:21;;;;;;;;;61.50;49.25;;;;;9.05;67.88;99949.44;5038879;28;45497;-73
2023/03/06 08:36:47;;;;;;;;;67.00;51.00;;;;;9.22;67.87;99970.69;5037858;28;45352;-73
2023/03/06 08:39:13;;;;;;;;;58.25;47.50;;;;;9.16;67.34;99958.38;5038028;28;45521;-73
2023/03/06 08:41:39;;;;;;;;;53.00;43.25;;;;;9.26;67.46;99969.06;5039080;28;45447;-73
2023/03/06 08:44:05;;;;;;;;;55.00;41.00;;;;;9.21;68.34;99976.78;5035000;28;45406;-73
2023/03/06 08:46:31;;;;;;;;;61.75;46.75;;;;;9.29;67.75;99982.16;5019231;28;45320;-74
2023/03/06 08:48:57;;;;;;;;;52.50;41.75;;;;;9.21;67.54;99976.78;5017871;28;45270;-74
2023/03/06 08:51:24;;;;;;;;;53.00;41.75;;;;;9.23;67.37;99974.19;5017065;28;47999;-75
2023/03/06 08:53:50;;;;;;;;;48.00;38.25;;;;;9.26;67.64;99980.38;5017483;28;45524;-73
2023/03/06 08:56:22;;;;;;;;;50.75;42.50;;;;;9.35;67.37;99995.34;5018972;28;45592;-74
2023/03/06 08:58:48;;;;;;;;;48.00;39.00;;;;;9.27;67.57;99970.81;5019215;28;45539;-73
2023/03/06 09:01:19;;;;;;;;;57.75;45.00;;;;;9.36;67.68;99998.00;5017034;28;47599;-74
2023/03/06 09:03:45;;;;;;;;;48.50;40.25;;;;;9.45;67.56;99994.78;5033925;28;45526;-74
2023/03/06 09:06:11;;;;;;;;;52.00;41.00;;;;;9.39;67.45;99980.66;5018468;28;45264;-76
2023/03/06 09:08:37;;;;;;;;;52.25;40.50;;;;;9.32;67.41;99969.22;5034224;28;45237;-74
2023/03/06 09:11:03;;;;;;;;;52.25;40.75;;;;;9.47;67.17;99990.47;5018563;28;45344;-75
2023/03/06 09:13:28;;;;;;;;;53.00;42.50;;;;;9.43;67.27;99985.13;5018624;28;45319;-74
2023/03/06 09:15:54;;;;;;;;;51.25;41.50;;;;;9.41;67.72;99989.41;5033694;28;45867;-76
2023/03/06 09:18:19;;;;;;;;;56.75;44.75;;;;;9.41;67.43;99990.31;5021961;28;45519;-75
2023/03/06 09:20:45;;;;;;;;;50.00;40.25;;;;;9.43;66.91;99980.81;5017833;28;46159;-75
2023/03/06 09:23:10;;;;;;;;;47.50;38.50;;;;;9.42;66.83;99970.34;5048385;28;45375;-75
2023/03/06 09:25:36;;;;;;;;;52.25;43.25;;;;;9.45;67.17;99973.91;5020908;28;45411;-74
2023/03/06 09:28:01;;;;;;;;;61.75;48.00;;;;;9.61;67.07;99997.75;5052990;28;45566;-75
2023/03/06 09:30:26;;;;;;;;;57.25;46.00;;;;;9.66;66.78;99990.94;5026215;28;47127;-72
2023/03/06 09:32:52;;;;;;;;;56.00;42.50;;;;;9.80;65.92;99986.91;5017417;28;45592;-73
2023/03/06 09:35:17;;;;;;;;;49.25;38.75;;;;;9.92;65.65;99961.13;5051620;28;45482;-74
2023/03/06 09:37:44;;;;;;;;;50.75;42.50;;;;;10.28;64.55;99978.44;5029132;28;45450;-75
2023/03/06 09:40:20;;;;;;;;;52.00;41.50;;;;;10.46;64.57;99962.31;5044293;28;47129;-74
2023/03/06 09:42:46;;;;;;;;;55.75;42.25;;;;;10.89;63.80;99978.88;5037381;28;45411;-74
2023/03/06 09:45:12;;;;;;;;;48.50;37.25;;;;;11.13;62.36;99973.22;5037231;28;45561;-74
2023/03/06 09:47:48;;;;;;;;;41.25;35.00;;;;;11.34;61.77;99970.13;5053962;28;45414;-74
2023/03/06 09:50:36;;;;;;;;;52.00;39.75;;;;;11.61;60.05;99979.28;5031856;28;47473;-75
2023/03/06 09:53:39;;;;;;;;;39.50;36.50;;;;;11.84;59.13;99979.69;5017495;28;45451;-74
2023/03/06 09:56:31;;;;;;;;;49.75;39.25;;;;;11.91;58.21;99957.13;5016447;28;45379;-73
2023/03/06 09:59:06;;;;;;;;;45.00;34.25;;;;;12.13;57.56;99971.41;5027058;28;45287;-74
2023/03/06 10:01:39;;;;;;;;;42.50;34.25;;;;;12.39;56.81;99979.63;5020247;28;46351;-75
2023/03/06 10:04:15;;;;;;;;;38.00;29.25;;;;;12.61;54.05;99995.63;5047989;28;45268;-75
2023/03/06 10:06:45;;;;;;;;;35.25;32.75;;;;;12.71;54.26;99997.50;5026047;28;45445;-74
2023/03/06 10:09:36;;;;;;;;;35.75;31.75;;;;;12.85;54.42;100000.28;5037139;28;45577;-75
2023/03/06 10:12:06;;;;;;;;;30.50;27.00;;;;;12.78;52.51;99990.63;5030018;28;45420;-74
2023/03/06 10:14:44;;;;;;;;;29.50;27.25;;;;;12.89;53.67;100005.63;5016835;28;45348;-74
2023/03/06 10:17:19;;;;;;;;;27.75;25.50;;;;;12.96;52.69;100003.94;5032316;28;45849;-73
2023/03/06 10:19:46;;;;;;;;;26.75;25.50;;;;;12.97;53.15;100004.81;5033234;28;45352;-72
2023/03/06 10:22:20;;;;;;;;;31.00;29.50;;;;;13.11;53.12;100006.72;5020570;28;46544;-74
2023/03/06 10:25:02;;;;;;;;;27.75;25.75;;;;;13.23;52.89;99990.25;5016715;28;45474;-74
2023/03/06 10:27:39;;;;;;;;;29.75;28.25;;;;;13.31;51.73;99993.84;5033008;28;45564;-73
2023/03/06 10:30:26;;;;;;;;;39.75;31.50;;;;;13.45;52.12;99996.63;5024138;28;45634;-73
2023/03/06 10:32:57;;;;;;;;;39.50;33.25;;;;;13.41;51.67;99986.97;5036524;28;45363;-72
2023/03/06 10:35:49;;;;;;;;;36.00;31.50;;;;;13.60;50.53;99987.97;5034848;28;45853;-76
2023/03/06 10:38:26;;;;;;;;;39.25;34.50;;;;;13.77;50.43;99976.75;5029117;28;45483;-73
2023/03/06 10:41:22;;;;;;;;;47.25;37.25;;;;;13.82;49.61;99967.16;5030150;28;45497;-73
2023/03/06 10:44:03;;;;;;;;;34.00;31.75;;;;;13.90;50.70;99973.34;5030089;28;46836;-74
2023/03/06 10:46:34;;;;;;;;;37.25;32.00;;;;;14.07;49.81;99965.59;5034140;28;45630;-75
2023/03/06 10:49:03;;;;;;;;;31.75;28.75;;;;;14.30;48.84;99974.50;5034743;28;45517;-75
2023/03/06 10:51:30;;;;;;;;;46.00;38.50;;;;;14.45;48.67;99970.19;5020414;28;45671;-76
2023/03/06 10:54:01;;;;;;;;;35.50;31.00;;;;;14.59;48.53;99968.53;5036438;28;45773;-76
2023/03/06 10:56:31;;;;;;;;;39.25;31.00;;;;;14.75;48.46;99960.72;5036269;28;45799;-75
2023/03/06 10:59:18;;;;;;;;;37.00;33.00;;;;;14.95;47.52;99951.13;5021299;28;45493;-77
2023/03/06 11:01:50;;;;;;;;;33.50;30.75;;;;;15.14;46.77;99951.16;5036778;28;45649;-75
2023/03/06 11:04:25;;;;;;;;;40.25;35.00;;;;;15.30;46.11;99959.09;5034982;28;45458;-75
2023/03/06 11:07:20;;;;;;;;;49.50;38.50;;;;;15.45;46.65;99946.81;5036259;28;45430;-75
2023/03/06 11:09:58;;;;;;;;;36.50;31.50;;;;;15.52;46.41;99951.22;5006155;28;45544;-75
2023/03/06 11:12:26;;;;;;;;;41.50;34.50;;;;;15.73;45.38;99946.84;5023018;28;45497;-74
2023/03/06 11:15:22;;;;;;;;;31.50;29.75;;;;;15.92;43.42;99948.59;5036935;28;45525;-74
2023/03/06 11:17:56;;;;;;;;;35.75;33.00;;;;;15.91;44.16;99938.91;5027479;28;46106;-72
2023/03/06 11:20:22;;;;;;;;;35.25;30.25;;;;;16.13;43.31;99942.38;5041206;28;45543;-72
2023/03/06 11:22:58;;;;;;;;;30.50;27.50;;;;;16.32;43.75;99940.59;5030297;28;45370;-73
2023/03/06 11:25:32;;;;;;;;;29.00;27.25;;;;;16.54;42.78;99933.47;5039259;28;46243;-72
2023/03/06 11:28:05;;;;;;;;;30.00;28.00;;;;;16.56;42.16;99923.81;5026863;28;45560;-72